Leonardo Vázquez

Olheiro - Gimnasia La Plata
3 Dez 2028
Domingo
Processo

Personalidade

Adaptabilidade (20) Ambição (17) Controvérsia (18) Lealdade (18) Pressão (14) Profissionalismo (2) Espírito Esportivo (8) Temperamento (3)

Perfil

Estilo de Treinamento Democrático
Licença Continental Pro
Determinação 12
Gestão de Pessoas 11
Motivação 11
Disciplina 7
Satisfação no Trabalho
31%
Fadiga
0%
Função Olheiro
Salário 18.7K p/s
Contrato 14.03.2029

Desempenho

Comportamento Bom
Eficácia do Treinamento
12%
Desenvolvimento do Jogador
65%
Prevenção de Lesões
25%
Implementação Tática
65%

Eventos Recentes

Participou de uma reunião de recrutamento agora
Participou de uma reunião de recrutamento agora
Participou de uma reunião de recrutamento agora
Participou de uma reunião de recrutamento 7d atrás
Participou de uma reunião de recrutamento 7d atrás
Participou de uma reunião de recrutamento 7d atrás
Participou de uma reunião de recrutamento 7d atrás
Participou de uma reunião de recrutamento 14d atrás

Monitorando agora

100
Jogador Clube Status Habilidade Confiança Observado Última observação Último voto
Juan Peinipil Madryn Negociando 107 / 103 72% 1 01.12.2028 -
Lautaro Dufur Juventud Ativo 106 / 106 40% 1 29.05.2028 -
Diego Vargas Universidad de Concepcion Ativo 100 / 101 40% 1 29.05.2028 -
Abubakar Adams Aduana Stars Ativo 91 / 94 40% 2 27.05.2028 -
Kelian Le Pironnec Mirandés Ativo 108 / 91 40% 2 27.05.2028 -
Andrea Cogoni Cosenza Ativo 106 / 113 40% 3 27.05.2028 -
Jan Bürger Northampton Town Ativo 132 / 123 40% 7 25.05.2028 -
Jorthy Mokio ADO Den Haag Ativo 144 / 142 40% 5 25.05.2028 Observar
Olivier Leroux Mouscron Ativo 103 / 121 40% 6 25.05.2028 -
Tobiáš Pališčák Zlin Ativo 101 / 101 40% 1 19.05.2028 -
Josh Nichols Oldham Athletic Ativo 127 / 128 40% 6 18.05.2028 -
Tyler Fletcher Rotherham United Ativo 107 / 111 40% 3 18.05.2028 -
Honest Ahanor Atalanta Ativo 143 / 151 40% 6 17.05.2028 -
Trey Nyoni Rotherham United Ativo 150 / 151 40% 4 16.05.2028 -
Riquelme Thompson-Jones Accrington Stanley Ativo 103 / 116 40% 2 14.05.2028 -
Giovanni Leoni Lincoln City Ativo 140 / 144 40% 3 14.05.2028 -
Andrey Ivlev Nizhniy Novgorod Ativo 107 / 131 40% 4 11.05.2028 -
Tobías Ramírez River Plate Ativo 136 / 133 40% 1 11.05.2028 -
Mateo Caballero Defensor Sporting Ativo 107 / 106 40% 1 11.05.2028 -
Bernardo Lima Porto Ativo 105 / 124 40% 4 10.05.2028 -
Celías Ingenthron Platense Ativo 115 / 120 40% 1 10.05.2028 -
Christos Mouzakitis Hull City Ativo 143 / 144 40% 4 08.05.2028 Observar
Nicolò Moranduzzo Renate Ativo 95 / 94 40% 1 04.05.2028 -
Kiani Inge Groningen Ativo 111 / 115 40% 1 04.05.2028 -
Martim Cunha Porto Ativo 108 / 110 40% 3 29.04.2028 -
Daniel Banjaqui Benfica Ativo 132 / 115 40% 2 27.04.2028 -
Miguel Figueiredo Benfica Ativo 107 / 124 40% 2 24.04.2028 -
Augusto Bando Ascoli Ativo 112 / 126 40% 1 18.04.2028 -
Musa Danjuma Umraniyespor Ativo 103 / 101 40% 1 18.04.2028 -
Gustavo Albarracín Alavés Ativo 117 / 128 40% 4 16.04.2028 -
Josh Acheampong Everton Ativo 142 / 154 40% 2 06.04.2028 -
Victor Hernandez Santa Fe Ativo 122 / 115 40% 1 05.04.2028 -
Nicolas Sport Recife Ativo 111 / 106 40% 2 23.03.2028 -
Matvey Bardachev Zenit Ativo 108 / 102 40% 1 23.03.2028 -
Ayden Heaven Portsmouth Ativo 153 / 157 40% 2 20.03.2028 -
Dennis Cirkin Queens Park Rangers Ativo 138 / 116 40% 1 30.11.2026 -
Joe Gelhardt Hull City Ativo 144 / 116 40% 1 28.11.2026 -
Patrick Agyemang Derby County Ativo 137 / 110 40% 1 28.11.2026 Mais informações
Alejo Cruz Juventud Ativo 130 / 124 40% 5 26.11.2026 -
Sota Kitano Red Bull Salzburg Ativo 128 / 108 40% 2 26.11.2026 -
Tomáš Rigo Stoke City Ativo 116 / 128 40% 1 26.11.2026 -
Ivo Mammini Beitar Jerusalem Ativo 118 / 105 40% 2 23.11.2026 -
Matías Contrera Hrvatski Dragovoljac Ativo 102 / 111 40% 1 22.11.2026 -
Talles Magno New York City Ativo 113 / 143 40% 1 18.11.2026 -
Martín Ojeda Orlando City Ativo 146 / 133 40% 3 14.11.2026 -
Lorenzo Colombo Genoa Ativo 146 / 130 40% 1 12.11.2026 Mais informações
Tyrese Campbell Sheffield United Ativo 114 / 124 40% 2 05.11.2026 -
Yousef Salech Cardiff City Ativo 140 / 112 40% 1 05.11.2026 -
Jhon Jhon Zenit Ativo 142 / 117 40% 1 02.11.2026 -
Jáder Valencia Deportes Tolima Ativo 118 / 119 40% 1 02.11.2026 -
Ilyas Ansah Hull City Ativo 124 / 123 40% 1 02.11.2026 -
Wessam Abou Ali Columbus Crew Ativo 122 / 129 40% 1 01.11.2026 -
Esteban da Silva Racing Ativo 115 / 119 40% 1 30.10.2026 -
Erik Botheim Viking Ativo 117 / 133 40% 1 30.10.2026 -
Santiago Toloza O'Higgins Ativo 133 / 126 40% 1 29.10.2026 -
Luciano Cosentino Wanderers Ativo 127 / 129 40% 2 25.10.2026 -
Dwight McNeil Crystal Palace Ativo 138 / 145 40% 1 23.10.2026 -
Luis Caicedo Spartak 1918 Ativo 101 / 89 40% 1 20.10.2026 -
Alejandro Pozo Standard Liege Ativo 140 / 136 40% 1 20.10.2026 -
Emiliano Álvarez Progreso Ativo 110 / 127 40% 1 20.10.2026 -
Jesus Ferreira Seattle Sounders Ativo 124 / 122 40% 3 18.10.2026 -
Efraín Álvarez Aston Villa Ativo 119 / 134 40% 1 18.10.2026 -
Sorba Thomas Stoke City Ativo 133 / 127 40% 1 18.10.2026 -
Bénie Traoré New York City Ativo 110 / 131 40% 2 16.10.2026 -
Oswin Appollis Orlando Pirates Ativo 105 / 119 40% 2 16.10.2026 -
Richard Koné Queens Park Rangers Ativo 134 / 132 40% 1 12.10.2026 -
Ali Ahmed Norwich City Ativo 111 / 115 40% 1 11.10.2026 -
Kévin Denkey FC Cincinnati Ativo 124 / 113 40% 1 11.10.2026 -
Aune Heggebø West Bromwich Albion Ativo 135 / 130 40% 1 10.10.2026 -
Ramiro Ruiz Rodríguez Atlético Tucumán Ativo 112 / 125 40% 2 08.10.2026 -
Carlos Álvarez Club America Ativo 150 / 147 40% 1 06.10.2026 -
Omar Campos Cruz Azul Ativo 128 / 131 40% 1 06.10.2026 -
Alexis Gutiérrez Club America Ativo 131 / 126 40% 1 05.10.2026 -
Brian Rodríguez Club America Ativo 113 / 137 40% 1 05.10.2026 -
Sergi Cardona KAA Gent Ativo 135 / 135 40% 1 03.10.2026 -
Tadeo Allende Inter Miami CF Ativo 120 / 130 40% 1 02.10.2026 -
Rômulo Tigres Ativo 137 / 126 40% 1 28.09.2026 -
Ramiro Sordo Santos Laguna Ativo 136 / 132 40% 1 27.09.2026 -
Aarón Molinas Defensa y Justicia Ativo 124 / 130 40% 1 27.09.2026 -
Duncan McGuire Houston Dynamo Ativo 111 / 137 40% 1 26.09.2026 -
Brandon Vázquez Austin FC Ativo 134 / 128 40% 1 26.09.2026 -
Germán Berterame Inter Miami CF Ativo 125 / 137 40% 1 25.09.2026 -
Cristian Barros Cerro Ativo 99 / 96 40% 1 24.09.2026 -
Lucas Varaldo Morelia Ativo 127 / 126 40% 2 21.09.2026 -
Alexander Aravena Portland Timbers Ativo 132 / 125 40% 1 19.09.2026 -
Ezequiel Bullaude Santos Laguna Ativo 131 / 114 40% 1 19.09.2026 -
Fidel Ambríz Monterrey Ativo 130 / 145 40% 1 18.09.2026 -
José Alvarado Leon Ativo 113 / 116 40% 3 15.09.2026 -
Sebastián Moreno Patriotas Ativo 103 / 92 40% 1 14.09.2026 -
Justo Giani Umraniyespor Ativo 129 / 136 40% 1 13.09.2026 -
Alejandro Piedrahita Deportivo Pereira Ativo 127 / 123 40% 1 12.09.2026 -
Jaminton Campaz Rosario Central Ativo 126 / 116 40% 1 12.09.2026 -
Adolfo Muñoz UTC Ativo 118 / 104 40% 1 09.08.2026 -
Adrián Parra Deportes Tolima Ativo 122 / 121 40% 1 07.08.2026 -
Aarón Mejía Tijuana Ativo 115 / 120 40% 1 06.08.2026 -
Alan Cervantes Club America Ativo 133 / 110 40% 1 04.08.2026 -
Joaquim Tigres Ativo 145 / 136 40% 1 04.08.2026 -
Fernando Beltrán Leon Ativo 124 / 109 40% 1 03.08.2026 -
Lucas Verza Olimpia Ativo 99 / 120 40% 1 01.08.2026 -
Andrés Samurio Tacuarembo Ativo 110 / 111 40% 1 01.08.2026 -